»·PEaware :: N5328W KSNA-KCRQ

N5328W :: KSNA-KCRQ

FLIGHT INFORMATION

Flight Status: Arrived
Operator: Privately registered:
United States
More flights under this callsign
Pilot: Nick S. (31988)
Aircraft: Unknown
(A36)
More flights by this aircraft type
Origin: KSNA John Wayne-Orange Co
United States
Destination: KCRQ McClellan-Palomar
United States
More flights between these airports :: More routes between these airports
Route: V23 OCN
File this flight plan on PilotEdge
Remarks:
Altitude:
(Current/Filed)
5,000ft
Speed:
(Current/Filed)
160kts
Departed: 24-Oct-20 08:58 AM
Arrived: 24-Oct-20 09:33 AM
Distance/Time
Traveled:
44nm/0:35
Distance/Time
To Go:
Arrived

Flight Plot

Page will automatically refresh every two minutes.


Map Options




Map Legend


Flown Route
Filed Route
Departure Airport
Arrival Airport
Navaid (VOR, NDB)
Fix

Horizontal Profiles

Position Reports

Time Latitude Longitude Heading Altitude Ground
Speed
24-Oct-20 08:43 33.676161 -117.870972 183 52ft 0kts
24-Oct-20 08:44 33.676161 -117.870972 183 52ft 0kts
24-Oct-20 08:45 33.676161 -117.870972 183 52ft 0kts
24-Oct-20 08:46 33.676161 -117.870972 183 52ft 0kts
24-Oct-20 08:47 33.676161 -117.870972 183 52ft 0kts
24-Oct-20 08:48 33.676161 -117.870972 183 52ft 0kts
24-Oct-20 08:49 33.676161 -117.870972 183 52ft 0kts
24-Oct-20 08:50 33.676161 -117.870972 183 52ft 0kts
24-Oct-20 08:51 33.676901 -117.869595 27 52ft 18kts
24-Oct-20 08:52 33.679997 -117.867775 25 45ft 19kts
24-Oct-20 08:53 33.681182 -117.866557 89 43ft 0kts
24-Oct-20 08:54 33.681182 -117.866549 85 43ft 0kts
24-Oct-20 08:55 33.681182 -117.866549 85 43ft 0kts
24-Oct-20 08:56 33.681182 -117.866548 85 43ft 0kts
24-Oct-20 08:57 33.669477 -117.871276 184 413ft 91kts
24-Oct-20 08:58 33.639181 -117.875030 187 1342ft 136kts
24-Oct-20 08:59 33.600185 -117.881017 187 2100ft 138kts
24-Oct-20 09:00 33.563281 -117.886312 187 3009ft 129kts
24-Oct-20 09:01 33.528924 -117.891338 187 3910ft 118kts
24-Oct-20 09:02 33.499062 -117.895409 185 4792ft 95kts
24-Oct-20 09:03 33.488141 -117.861801 102 4958ft 142kts
24-Oct-20 09:04 33.480652 -117.811830 102 4964ft 159kts
24-Oct-20 09:05 33.472146 -117.757250 102 4966ft 170kts
24-Oct-20 09:06 33.463248 -117.701160 102 4970ft 172kts
24-Oct-20 09:07 33.452478 -117.645638 130 4971ft 170kts
24-Oct-20 09:08 33.417308 -117.607971 139 4968ft 170kts
24-Oct-20 09:09 33.382092 -117.569989 139 4967ft 169kts
24-Oct-20 09:10 33.347087 -117.532265 139 4966ft 169kts
24-Oct-20 09:11 33.312137 -117.494630 139 4967ft 169kts
24-Oct-20 09:12 33.277449 -117.457310 139 4967ft 169kts
24-Oct-20 09:13 33.266583 -117.406440 82 4968ft 173kts
24-Oct-20 09:14 33.273701 -117.349415 82 4968ft 173kts
24-Oct-20 09:15 33.280652 -117.292223 82 4968ft 173kts
24-Oct-20 09:16 33.287427 -117.235166 82 4965ft 173kts
24-Oct-20 09:17 33.293990 -117.178025 82 4966ft 173kts
24-Oct-20 09:18 33.300357 -117.120665 82 4962ft 173kts
24-Oct-20 09:19 33.306295 -117.063122 90 4966ft 175kts
24-Oct-20 09:20 33.273924 -117.027507 152 4963ft 155kts
24-Oct-20 09:21 33.239135 -117.004144 152 4963ft 129kts
24-Oct-20 09:22 33.209683 -116.983903 153 4963ft 118kts
24-Oct-20 09:23 33.184405 -116.999829 223 4940ft 108kts
24-Oct-20 09:24 33.168783 -117.028962 260 4418ft 105kts
24-Oct-20 09:25 33.164438 -117.064148 254 3831ft 105kts
24-Oct-20 09:26 33.158438 -117.098993 257 3443ft 107kts
24-Oct-20 09:27 33.151556 -117.133847 257 3171ft 106kts
24-Oct-20 09:28 33.145869 -117.169657 259 2395ft 115kts
24-Oct-20 09:29 33.140141 -117.206042 259 1386ft 101kts
24-Oct-20 09:30 33.134880 -117.238526 254 928ft 96kts
24-Oct-20 09:31 33.130413 -117.266713 258 430ft 81kts
24-Oct-20 09:32 33.127554 -117.279634 187 331ft 0kts
24-Oct-20 09:33 33.126952 -117.280800 269 332ft 0kts
24-Oct-20 09:34 33.126952 -117.280800 269 332ft 0kts
24-Oct-20 09:35 33.126952 -117.280800 269 332ft 0kts

Navigation Log

Ident Type
Flight plan parsing failed, navigation log unavailable